Time;durP1;ratioP1;P1;durP2;ratioP2;P2;SDS_P1;SDS_P2;PMS_P1;PMS_P2;Temp;Humidity;BMP_temperature;BMP_pressure;BME280_temperature;BME280_humidity;BME280_pressure;Samples;Min_cycle;Max_cycle;Signal;HPM_P1;HPM_P2
2023/05/31 00:00:24;;;;;;;4.82;3.80;;;14.40;1.00;;;;;;5082227;28;20046;-72
2023/05/31 00:02:50;;;;;;;4.85;4.03;;;14.40;1.00;;;;;;5099133;28;20044;-72
2023/05/31 00:05:16;;;;;;;4.28;3.88;;;14.40;1.00;;;;;;5082100;28;20025;-72
2023/05/31 00:07:42;;;;;;;4.32;3.85;;;14.30;1.00;;;;;;5098883;28;20316;-73
2023/05/31 00:10:08;;;;;;;5.00;3.90;;;14.20;1.00;;;;;;5099000;28;20387;-72
2023/05/31 00:12:34;;;;;;;4.57;4.18;;;14.20;1.00;;;;;;5098826;28;20119;-72
2023/05/31 00:15:03;;;;;;;4.32;4.00;;;14.40;1.00;;;;;;5099349;28;20059;-72
2023/05/31 00:17:29;;;;;;;4.30;3.90;;;14.20;1.00;;;;;;5081822;28;20036;-72
2023/05/31 00:19:55;;;;;;;4.38;3.90;;;14.30;1.00;;;;;;5099701;28;20028;-73
2023/05/31 00:22:21;;;;;;;4.82;4.25;;;14.40;1.00;;;;;;5098662;28;20043;-73
2023/05/31 00:24:47;;;;;;;5.00;4.07;;;14.30;1.00;;;;;;5098652;28;20032;-73
2023/05/31 00:27:13;;;;;;;5.45;4.47;;;14.10;1.00;;;;;;5099852;28;20042;-73
2023/05/31 00:29:39;;;;;;;4.45;4.00;;;14.10;1.00;;;;;;5098561;28;20384;-73
2023/05/31 00:32:05;;;;;;;5.93;4.35;;;14.20;1.00;;;;;;5048419;28;20032;-73
2023/05/31 00:34:31;;;;;;;7.47;4.50;;;14.10;1.00;;;;;;5098415;28;20109;-74
2023/05/31 00:36:57;;;;;;;4.82;4.43;;;14.10;1.00;;;;;;5048479;28;20036;-73
2023/05/31 00:39:23;;;;;;;5.35;4.85;;;14.00;1.00;;;;;;5099348;28;20124;-73
2023/05/31 00:41:49;;;;;;;5.13;4.57;;;14.10;1.00;;;;;;5081544;28;20040;-72
2023/05/31 00:44:15;;;;;;;5.40;4.90;;;14.10;1.00;;;;;;5098919;28;20341;-73
2023/05/31 00:46:41;;;;;;;5.43;4.60;;;14.00;1.00;;;;;;5064845;28;20027;-72
2023/05/31 00:49:07;;;;;;;6.32;5.00;;;14.00;1.00;;;;;;5064934;28;20111;-73
2023/05/31 00:51:35;;;;;;;5.60;5.10;;;13.90;1.00;;;;;;5099105;28;20379;-73
2023/05/31 00:54:02;;;;;;;4.72;4.30;;;13.90;2.60;;;;;;5098952;28;20065;-73
2023/05/31 00:56:28;;;;;;;5.07;4.57;;;13.80;6.40;;;;;;5081364;28;20032;-73
2023/05/31 00:58:56;;;;;;;5.28;4.78;;;13.80;9.00;;;;;;5097245;28;20312;-73
2023/05/31 01:01:27;;;;;;;5.47;4.88;;;13.70;9.60;;;;;;5097995;28;20024;-73
2023/05/31 01:03:56;;;;;;;4.90;4.50;;;13.80;8.00;;;;;;5098738;28;20044;-73
2023/05/31 01:06:23;;;;;;;5.38;4.85;;;13.60;15.00;;;;;;5064531;28;20028;-73
2023/05/31 01:08:51;;;;;;;5.53;4.70;;;13.70;14.40;;;;;;5097757;28;20044;-73
2023/05/31 01:12:02;;;;;;;5.65;5.07;;;13.60;16.00;;;;;;5081159;28;20024;-73
2023/05/31 01:14:50;;;;;;;5.50;5.00;;;13.60;16.70;;;;;;5078202;28;20360;-73
2023/05/31 01:17:22;;;;;;;5.32;4.63;;;13.60;14.70;;;;;;5098604;28;20042;-73
2023/05/31 01:19:56;;;;;;;5.10;4.57;;;13.60;17.40;;;;;;5097783;28;20028;-73
2023/05/31 01:22:47;;;;;;;5.95;5.00;;;13.50;22.70;;;;;;5080874;28;20024;-73
2023/05/31 01:25:38;;;;;;;5.63;5.10;;;13.40;25.20;;;;;;5097532;28;20028;-73
2023/05/31 01:28:07;;;;;;;5.10;4.60;;;13.50;24.90;;;;;;5097707;28;20421;-73
2023/05/31 01:30:33;;;;;;;9.10;5.40;;;13.50;22.30;;;;;;5098228;28;20028;-73
2023/05/31 01:33:00;;;;;;;5.65;5.18;;;13.50;23.10;;;;;;5080613;28;20032;-73
2023/05/31 01:35:28;;;;;;;5.50;5.00;;;13.50;22.70;;;;;;5097356;28;20039;-73
2023/05/31 01:37:54;;;;;;;5.57;5.07;;;13.50;23.20;;;;;;5080568;28;20326;-73
2023/05/31 01:40:20;;;;;;;5.82;5.32;;;13.50;25.40;;;;;;5097477;28;20380;-73
2023/05/31 01:42:48;;;;;;;5.18;4.75;;;13.40;25.90;;;;;;5098152;28;20050;-73
2023/05/31 01:45:15;;;;;;;7.07;5.43;;;13.40;28.10;;;;;;5080468;28;20040;-74
2023/05/31 01:47:42;;;;;;;5.88;5.38;;;13.30;30.50;;;;;;5097005;28;20028;-73
2023/05/31 01:50:12;;;;;;;5.63;5.13;;;13.30;32.60;;;;;;5080597;28;20028;-73
2023/05/31 01:52:40;;;;;;;7.10;5.32;;;13.20;35.40;;;;;;5098127;28;20028;-73
2023/05/31 01:55:07;;;;;;;5.45;4.93;;;13.20;39.70;;;;;;5096936;28;20028;-73
2023/05/31 01:57:39;;;;;;;6.50;5.53;;;13.20;39.20;;;;;;5096897;28;20035;-73
2023/05/31 02:00:11;;;;;;;5.75;5.25;;;13.30;37.20;;;;;;5080223;28;20040;-73
2023/05/31 02:02:42;;;;;;;5.97;5.30;;;13.20;38.90;;;;;;5097196;28;20040;-74
2023/05/31 02:05:13;;;;;;;6.55;5.82;;;13.20;39.00;;;;;;5096726;28;20056;-73
2023/05/31 02:07:44;;;;;;;6.78;6.18;;;13.20;40.70;;;;;;5096765;28;20419;-73
2023/05/31 02:10:11;;;;;;;6.13;5.53;;;13.20;44.20;;;;;;5096699;28;20040;-73
2023/05/31 02:12:39;;;;;;;6.43;5.50;;;13.10;47.10;;;;;;5096904;28;20031;-73
2023/05/31 02:15:10;;;;;;;5.78;5.28;;;13.00;50.10;;;;;;5096725;28;20047;-73
2023/05/31 02:17:42;;;;;;;6.50;5.82;;;13.10;49.40;;;;;;5080097;28;20020;-73
2023/05/31 02:20:13;;;;;;;5.95;5.45;;;13.00;53.30;;;;;;5080981;28;20027;-73
2023/05/31 02:22:40;;;;;;;6.85;6.05;;;13.10;50.70;;;;;;5096356;28;20032;-74
2023/05/31 02:25:11;;;;;;;6.75;6.10;;;13.20;47.00;;;;;;5096274;28;20039;-73
2023/05/31 02:27:40;;;;;;;6.53;5.88;;;13.20;47.70;;;;;;5096524;28;20311;-74
2023/05/31 02:30:07;;;;;;;6.55;5.10;;;13.10;48.10;;;;;;5096530;28;20030;-75
2023/05/31 02:32:35;;;;;;;6.28;5.75;;;13.10;50.00;;;;;;5097048;28;20035;-74
2023/05/31 02:35:05;;;;;;;8.10;6.20;;;13.10;51.30;;;;;;5096200;28;20061;-75
2023/05/31 02:37:32;;;;;;;7.22;5.90;;;13.00;56.10;;;;;;5096271;28;20051;-75
2023/05/31 02:39:58;;;;;;;6.13;5.63;;;13.00;55.70;;;;;;5097142;28;20264;-74
2023/05/31 02:42:24;;;;;;;9.68;5.70;;;13.00;56.10;;;;;;5097069;28;20028;-74
2023/05/31 02:44:50;;;;;;;7.05;6.10;;;12.90;58.40;;;;;;5096051;28;20336;-72
2023/05/31 02:47:16;;;;;;;6.28;5.75;;;13.00;59.20;;;;;;5079413;28;20071;-73
2023/05/31 02:49:43;;;;;;;9.60;6.40;;;12.90;59.50;;;;;;5096349;28;20128;-73
2023/05/31 02:52:08;;;;;;;6.85;6.20;;;12.90;62.40;;;;;;5096390;28;20111;-73
2023/05/31 02:55:07;;;;;;;6.90;6.30;;;12.80;64.00;;;;;;5096531;28;20326;-73
2023/05/31 02:57:44;;;;;;;7.30;6.18;;;12.80;68.60;;;;;;5080907;28;20031;-73
2023/05/31 03:00:11;;;;;;;9.50;6.45;;;12.80;69.80;;;;;;5079810;28;20302;-74
2023/05/31 03:02:38;;;;;;;7.95;6.20;;;12.80;70.20;;;;;;5079222;28;20036;-73
2023/05/31 03:05:24;;;;;;;7.43;6.18;;;12.70;71.80;;;;;;5096254;28;20198;-73
2023/05/31 03:07:50;;;;;;;7.13;6.43;;;12.70;76.10;;;;;;5095800;28;20059;-73
2023/05/31 03:10:16;;;;;;;6.65;6.05;;;12.70;77.90;;;;;;5079568;28;20024;-74
2023/05/31 03:12:42;;;;;;;6.70;6.10;;;12.60;80.00;;;;;;5079279;28;20047;-74
2023/05/31 03:15:08;;;;;;;7.88;6.38;;;12.60;81.40;;;;;;5095910;28;20032;-74
2023/05/31 03:17:37;;;;;;;7.13;6.43;;;12.50;84.50;;;;;;5079401;28;20097;-74
2023/05/31 03:20:09;;;;;;;8.18;7.15;;;12.50;88.70;;;;;;5079726;28;20032;-74
2023/05/31 03:22:36;;;;;;;7.15;6.22;;;12.60;87.90;;;;;;5098496;28;20122;-74
2023/05/31 03:25:03;;;;;;;9.35;7.22;;;12.60;86.30;;;;;;5099840;28;20093;-74
2023/05/31 03:27:30;;;;;;;8.18;7.38;;;12.60;88.10;;;;;;5099927;28;20028;-74
2023/05/31 03:29:56;;;;;;;7.65;6.93;;;12.50;90.40;;;;;;5099867;28;20047;-74
2023/05/31 03:32:22;;;;;;;7.65;6.85;;;12.50;90.90;;;;;;5099523;28;20052;-74
2023/05/31 03:34:49;;;;;;;7.75;7.05;;;12.60;90.30;;;;;;5082904;28;20111;-74
2023/05/31 03:37:15;;;;;;;8.00;7.05;;;12.50;91.00;;;;;;5082872;28;20101;-74
2023/05/31 03:39:43;;;;;;;7.82;7.00;;;12.50;93.90;;;;;;5099415;28;20028;-75
2023/05/31 03:42:17;;;;;;;10.60;7.45;;;12.40;93.70;;;;;;5083831;28;20043;-75
2023/05/31 03:44:43;;;;;;;8.05;7.25;;;12.40;95.60;;;;;;5099506;28;20028;-74
2023/05/31 03:47:10;;;;;;;10.02;8.07;;;12.50;95.40;;;;;;5049388;28;20086;-75
2023/05/31 03:49:36;;;;;;;9.10;7.68;;;12.50;94.40;;;;;;5099396;28;20071;-74
2023/05/31 03:52:02;;;;;;;10.20;7.90;;;12.50;94.30;;;;;;5099381;28;20068;-74
2023/05/31 03:54:33;;;;;;;9.13;7.65;;;12.40;96.30;;;;;;5065771;28;20415;-74
2023/05/31 03:56:59;;;;;;;9.20;7.55;;;12.30;97.10;;;;;;5100052;28;20020;-74
2023/05/31 03:59:25;;;;;;;8.68;7.70;;;12.40;97.30;;;;;;5082258;28;20032;-74
2023/05/31 04:01:50;;;;;;;9.02;7.68;;;12.40;97.80;;;;;;5082302;28;20122;-74
2023/05/31 04:04:17;;;;;;;9.55;8.13;;;12.40;97.30;;;;;;5099171;28;20299;-75
2023/05/31 04:06:43;;;;;;;9.52;7.90;;;12.50;97.00;;;;;;5082345;28;20035;-74
2023/05/31 04:09:09;;;;;;;8.55;7.75;;;12.40;97.70;;;;;;5082437;28;20426;-75
2023/05/31 04:11:34;;;;;;;11.40;7.65;;;12.40;98.60;;;;;;5100000;28;20059;-75
2023/05/31 04:14:01;;;;;;;9.27;7.95;;;12.40;99.10;;;;;;5082514;28;20510;-74
2023/05/31 04:16:28;;;;;;;10.05;8.18;;;12.40;98.50;;;;;;5065845;28;20028;-75
2023/05/31 04:18:55;;;;;;;11.80;8.55;;;12.40;98.80;;;;;;5098730;28;20039;-75
2023/05/31 04:21:21;;;;;;;10.52;8.27;;;12.30;99.90;;;;;;5081952;28;20304;-74
2023/05/31 04:23:47;;;;;;;9.77;8.50;;;12.40;99.90;;;;;;5081811;28;20036;-75
2023/05/31 04:26:16;;;;;;;9.43;7.90;;;12.40;99.90;;;;;;5065296;28;20388;-74
2023/05/31 04:28:44;;;;;;;9.65;8.57;;;12.40;99.90;;;;;;5098741;28;20028;-74
2023/05/31 04:31:11;;;;;;;9.23;8.32;;;12.30;99.90;;;;;;5098584;28;20034;-74
2023/05/31 04:33:38;;;;;;;9.95;8.38;;;12.50;99.90;;;;;;5064208;28;20024;-74
2023/05/31 04:36:08;;;;;;;13.90;8.27;;;12.50;99.90;;;;;;5082283;28;20040;-75
2023/05/31 04:38:35;;;;;;;11.15;8.52;;;12.50;99.90;;;;;;5098673;28;20425;-74
2023/05/31 04:41:03;;;;;;;11.27;8.20;;;12.50;99.90;;;;;;5081748;28;20025;-75
2023/05/31 04:43:29;;;;;;;11.00;8.60;;;12.50;99.90;;;;;;5065147;28;20024;-74
2023/05/31 04:45:56;;;;;;;10.40;8.30;;;12.60;99.90;;;;;;5098284;28;20102;-74
2023/05/31 04:48:22;;;;;;;9.90;8.30;;;12.60;99.90;;;;;;5098282;28;20028;-74
2023/05/31 04:50:49;;;;;;;11.05;8.57;;;12.70;99.70;;;;;;5081451;28;20374;-74
2023/05/31 04:53:14;;;;;;;10.90;8.43;;;12.90;99.30;;;;;;5081265;28;20078;-74
2023/05/31 04:55:41;;;;;;;11.98;8.85;;;12.80;98.50;;;;;;5098206;28;20304;-73
2023/05/31 04:58:08;;;;;;;10.60;9.18;;;12.90;98.90;;;;;;5098108;28;20028;-74
2023/05/31 05:00:36;;;;;;;11.93;9.52;;;13.00;98.20;;;;;;5080973;28;20181;-75
2023/05/31 05:03:18;;;;;;;9.73;8.13;;;13.10;97.00;;;;;;5098151;28;20032;-74
2023/05/31 05:05:46;;;;;;;10.68;8.90;;;13.10;97.10;;;;;;5064851;28;20036;-74
2023/05/31 05:08:12;;;;;;;11.13;8.90;;;13.10;96.90;;;;;;5081000;28;20044;-74
2023/05/31 05:10:39;;;;;;;10.90;8.35;;;13.20;96.70;;;;;;5081257;28;20260;-74
2023/05/31 05:13:05;;;;;;;10.77;8.25;;;13.30;95.90;;;;;;5097804;28;20085;-75
2023/05/31 05:15:34;;;;;;;12.10;8.57;;;13.30;96.30;;;;;;5097863;28;20035;-74
2023/05/31 05:18:00;;;;;;;13.88;8.95;;;13.40;95.70;;;;;;5097971;28;20114;-74
2023/05/31 05:20:27;;;;;;;11.52;9.43;;;13.50;94.70;;;;;;5080741;28;20349;-74
2023/05/31 05:22:53;;;;;;;11.30;8.90;;;13.40;94.90;;;;;;5097777;28;20036;-74
2023/05/31 05:25:20;;;;;;;12.43;9.02;;;13.30;95.30;;;;;;5097592;28;20047;-73
2023/05/31 05:27:47;;;;;;;15.90;8.52;;;13.50;96.10;;;;;;5097301;28;20024;-74
2023/05/31 05:30:13;;;;;;;11.88;9.70;;;13.70;93.60;;;;;;5080691;28;20115;-74
2023/05/31 05:32:39;;;;;;;11.27;9.48;;;13.80;92.30;;;;;;5097478;28;20067;-73
2023/05/31 05:35:06;;;;;;;10.88;9.43;;;13.90;91.30;;;;;;5097554;28;20032;-73
2023/05/31 05:37:32;;;;;;;10.90;9.77;;;14.00;90.40;;;;;;5098191;28;20104;-73
2023/05/31 05:39:59;;;;;;;12.13;9.18;;;13.90;90.10;;;;;;5097387;28;20450;-76
2023/05/31 05:42:27;;;;;;;11.13;9.93;;;14.00;90.00;;;;;;5080855;28;20399;-74
2023/05/31 05:44:53;;;;;;;12.00;9.90;;;14.10;85.10;;;;;;5096726;28;20046;-73
2023/05/31 05:47:18;;;;;;;10.07;9.07;;;14.10;84.40;;;;;;5097192;28;20036;-75
2023/05/31 05:49:46;;;;;;;12.10;9.05;;;14.10;85.10;;;;;;5080390;28;20031;-75
2023/05/31 05:52:12;;;;;;;15.25;9.18;;;14.20;85.60;;;;;;5047082;28;20170;-74
2023/05/31 05:54:37;;;;;;;10.95;9.82;;;14.30;83.30;;;;;;5096895;28;20126;-74
2023/05/31 05:57:06;;;;;;;12.10;10.40;;;14.40;79.20;;;;;;5080175;28;20082;-74
2023/05/31 05:59:37;;;;;;;15.27;9.68;;;14.60;74.40;;;;;;5065075;28;20032;-73
2023/05/31 06:02:14;;;;;;;12.18;9.10;;;14.70;71.10;;;;;;5081664;28;20311;-74
2023/05/31 06:04:40;;;;;;;11.10;9.38;;;14.70;64.00;;;;;;5097359;28;20036;-73
2023/05/31 06:07:06;;;;;;;13.00;9.88;;;14.60;69.40;;;;;;5096508;28;20395;-73
2023/05/31 06:09:32;;;;;;;10.48;9.38;;;14.70;67.10;;;;;;5080050;28;20032;-73
2023/05/31 06:11:58;;;;;;;13.10;9.80;;;14.80;64.80;;;;;;5097500;28;20020;-74
2023/05/31 06:14:28;;;;;;;12.65;9.18;;;15.00;61.40;;;;;;5064771;28;20284;-74
2023/05/31 06:16:55;;;;;;;14.13;9.30;;;15.10;53.30;;;;;;5096415;28;20036;-72
2023/05/31 06:19:20;;;;;;;12.05;8.77;;;15.00;55.20;;;;;;5097429;28;20388;-66
2023/05/31 06:21:48;;;;;;;10.10;8.65;;;15.10;59.20;;;;;;5079693;28;20407;-70
2023/05/31 06:24:14;;;;;;;11.60;9.57;;;15.30;53.80;;;;;;5063212;28;20042;-70
2023/05/31 06:26:40;;;;;;;10.90;8.90;;;15.40;45.50;;;;;;5079623;28;20044;-70
2023/05/31 06:29:07;;;;;;;10.52;8.55;;;15.50;44.50;;;;;;5096416;28;20027;-70
2023/05/31 06:31:56;;;;;;;13.57;9.43;;;15.60;40.00;;;;;;5097188;28;20158;-70
2023/05/31 06:34:22;;;;;;;11.75;9.75;;;15.60;41.00;;;;;;5064197;28;20128;-71
2023/05/31 06:36:51;;;;;;;12.43;9.50;;;15.80;31.30;;;;;;5096514;28;20028;-71
2023/05/31 06:39:17;;;;;;;11.18;9.07;;;15.70;28.10;;;;;;5096471;28;20043;-71
2023/05/31 06:41:43;;;;;;;10.77;9.20;;;15.80;31.10;;;;;;5096405;28;20032;-70
2023/05/31 06:44:28;;;;;;;13.57;9.55;;;15.90;33.20;;;;;;5097061;28;20047;-71
2023/05/31 06:47:05;;;;;;;11.73;9.60;;;16.00;31.00;;;;;;5081204;28;20032;-71
2023/05/31 06:49:48;;;;;;;11.02;9.20;;;16.10;24.10;;;;;;5082198;28;20028;-71
2023/05/31 06:52:34;;;;;;;11.40;8.95;;;16.10;22.00;;;;;;5095675;28;20040;-71
2023/05/31 06:55:19;;;;;;;13.93;8.82;;;16.30;25.10;;;;;;5096960;28;20082;-70
2023/05/31 06:57:46;;;;;;;13.02;8.90;;;16.30;19.90;;;;;;5082316;28;20032;-70
2023/05/31 07:00:13;;;;;;;13.88;9.20;;;16.50;17.90;;;;;;5083608;28;20399;-71
2023/05/31 07:02:40;;;;;;;11.32;8.20;;;16.70;16.20;;;;;;5083728;28;20036;-71
2023/05/31 07:05:06;;;;;;;10.48;9.35;;;16.90;7.40;;;;;;5100331;28;20036;-71
2023/05/31 07:07:32;;;;;;;14.40;8.82;;;17.00;1.00;;;;;;5083096;28;20067;-70
2023/05/31 07:09:58;;;;;;;12.85;9.27;;;17.10;1.00;;;;;;5083404;28;20031;-71
2023/05/31 07:12:24;;;;;;;12.88;9.80;;;17.10;1.00;;;;;;5083519;28;20024;-70
2023/05/31 07:14:50;;;;;;;15.27;9.05;;;17.10;1.00;;;;;;5100131;28;20039;-71
2023/05/31 07:17:16;;;;;;;10.63;8.68;;;17.20;1.00;;;;;;5083275;28;20334;-71
2023/05/31 07:19:48;;;;;;;10.48;8.95;;;17.20;1.00;;;;;;5099925;28;20036;-69
2023/05/31 07:22:15;;;;;;;;;;;17.20;1.00;;;;;;5100049;28;20442;-70
2023/05/31 07:24:42;;;;;;;15.18;9.70;;;17.20;1.00;;;;;;5099880;28;19915;-69
2023/05/31 07:27:08;;;;;;;11.85;8.80;;;17.40;1.00;;;;;;5099885;28;20032;-70
2023/05/31 07:29:35;;;;;;;15.13;9.02;;;17.50;1.00;;;;;;5100564;28;20244;-69
2023/05/31 07:32:00;;;;;;;14.60;9.68;;;17.50;1.00;;;;;;5100435;28;20020;-69
2023/05/31 07:34:26;;;;;;;13.65;9.40;;;17.60;1.00;;;;;;5099638;28;20031;-69
2023/05/31 07:36:52;;;;;;;10.75;8.65;;;17.70;1.00;;;;;;5099768;28;20103;-71
2023/05/31 07:39:20;;;;;;;13.32;8.65;;;17.70;1.00;;;;;;5099659;28;20391;-69
2023/05/31 07:41:46;;;;;;;14.82;9.40;;;17.70;1.00;;;;;;5099469;28;20391;-70
2023/05/31 07:44:12;;;;;;;17.73;9.35;;;18.00;1.00;;;;;;5100349;28;20093;-70
2023/05/31 07:46:37;;;;;;;12.23;9.15;;;18.00;1.00;;;;;;5100179;28;20039;-69
2023/05/31 07:49:03;;;;;;;10.77;9.35;;;18.00;1.00;;;;;;5082472;28;20043;-69
2023/05/31 07:51:30;;;;;;;16.35;9.32;;;18.00;1.00;;;;;;5099340;28;20096;-69
2023/05/31 07:53:56;;;;;;;12.25;9.57;;;18.20;1.00;;;;;;5099631;28;20040;-69
2023/05/31 07:56:22;;;;;;;11.40;8.68;;;18.20;1.00;;;;;;5099342;28;20048;-69
2023/05/31 07:58:48;;;;;;;11.65;9.18;;;18.30;1.00;;;;;;5082346;28;20446;-69
2023/05/31 08:01:13;;;;;;;20.75;9.70;;;18.30;1.00;;;;;;5082501;28;20051;-69
2023/05/31 08:03:41;;;;;;;14.52;9.02;;;18.50;1.00;;;;;;5099103;28;20463;-69
2023/05/31 08:06:07;;;;;;;11.07;9.00;;;18.60;1.00;;;;;;5099842;28;20336;-69
2023/05/31 08:08:33;;;;;;;11.52;8.50;;;18.70;1.00;;;;;;5098716;28;20067;-69
2023/05/31 08:11:00;;;;;;;13.65;8.63;;;18.70;1.00;;;;;;5100114;28;20040;-69
2023/05/31 08:13:28;;;;;;;12.13;8.55;;;18.80;1.00;;;;;;5082317;28;20024;-69
2023/05/31 08:15:55;;;;;;;15.73;9.13;;;19.00;1.00;;;;;;5099734;28;20035;-69
2023/05/31 08:18:22;;;;;;;11.38;9.20;;;19.10;1.00;;;;;;5099218;28;20047;-69
2023/05/31 08:20:48;;;;;;;12.55;9.20;;;19.20;1.00;;;;;;5099599;28;20032;-69
2023/05/31 08:23:20;;;;;;;14.25;8.52;;;19.30;1.00;;;;;;5098769;28;20310;-69
2023/05/31 08:25:47;;;;;;;12.55;8.55;;;19.30;1.00;;;;;;5099176;28;20032;-69
2023/05/31 08:28:13;;;;;;;15.13;9.48;;;19.30;1.00;;;;;;5099414;28;20035;-70
2023/05/31 08:30:39;;;;;;;13.57;8.18;;;19.20;1.00;;;;;;5099414;28;20039;-70
2023/05/31 08:33:05;;;;;;;11.05;8.50;;;19.20;1.00;;;;;;5099335;28;20067;-70
2023/05/31 08:35:31;;;;;;;12.40;8.05;;;19.10;1.00;;;;;;5098513;28;20415;-70
2023/05/31 08:37:57;;;;;;;11.35;8.82;;;19.30;1.00;;;;;;5098930;28;20071;-69
2023/05/31 08:40:23;;;;;;;11.23;8.88;;;19.40;1.00;;;;;;5098539;28;20349;-69
2023/05/31 08:43:00;;;;;;;13.60;8.77;;;19.30;1.00;;;;;;5099265;28;20028;-71
2023/05/31 08:45:29;;;;;;;11.60;8.48;;;19.40;1.00;;;;;;5099009;28;20419;-69
2023/05/31 08:47:58;;;;;;;11.63;7.75;;;19.50;1.00;;;;;;5065807;28;20039;-69
2023/05/31 08:50:26;;;;;;;14.80;8.10;;;19.60;1.00;;;;;;5099156;28;20433;-68
2023/05/31 08:52:53;;;;;;;14.98;8.35;;;19.70;1.00;;;;;;5081584;28;20040;-68
2023/05/31 08:55:20;;;;;;;12.80;8.15;;;19.80;1.00;;;;;;5099030;28;20024;-69
2023/05/31 08:57:47;;;;;;;17.35;8.90;;;20.00;1.00;;;;;;5098069;28;20059;-69
2023/05/31 09:00:14;;;;;;;14.85;8.52;;;19.90;1.00;;;;;;5098253;28;20047;-68
2023/05/31 09:02:41;;;;;;;13.25;8.52;;;19.90;1.00;;;;;;5098239;28;20063;-68
2023/05/31 09:05:11;;;;;;;13.20;9.00;;;20.10;1.00;;;;;;5097946;28;20136;-68
2023/05/31 09:07:38;;;;;;;13.55;7.95;;;20.30;1.00;;;;;;5098463;28;20052;-68
2023/05/31 09:10:06;;;;;;;10.65;7.60;;;20.40;1.00;;;;;;5097882;28;20110;-67
2023/05/31 09:12:32;;;;;;;11.52;7.60;;;20.50;1.00;;;;;;5097873;28;20138;-70
2023/05/31 09:14:59;;;;;;;10.55;7.85;;;20.70;1.00;;;;;;5098555;28;20036;-69
2023/05/31 09:17:24;;;;;;;10.45;7.90;;;20.80;1.00;;;;;;5097871;28;20040;-68
2023/05/31 09:19:53;;;;;;;10.70;7.20;;;20.80;1.00;;;;;;5096970;28;20039;-68
2023/05/31 09:22:21;;;;;;;13.48;8.02;;;20.80;1.00;;;;;;5098600;28;20093;-68
2023/05/31 09:24:59;;;;;;;13.52;7.53;;;21.00;1.00;;;;;;5097617;28;20127;-68
2023/05/31 09:27:26;;;;;;;12.88;7.82;;;21.10;1.00;;;;;;5098497;28;20028;-69
2023/05/31 09:29:56;;;;;;;10.55;7.03;;;21.20;1.00;;;;;;5097526;28;20032;-69
2023/05/31 09:32:22;;;;;;;12.55;7.07;;;21.30;99.90;;;;;;5097496;28;20103;-68
2023/05/31 09:34:47;;;;;;;9.50;6.75;;;21.40;1.00;;;;;;5080829;28;20349;-69
2023/05/31 09:37:24;;;;;;;13.02;6.72;;;21.40;99.90;;;;;;5097338;28;20024;-69
2023/05/31 09:39:58;;;;;;;11.35;6.82;;;21.50;99.90;;;;;;5080737;28;20362;-68
2023/05/31 09:42:29;;;;;;;11.23;7.07;;;21.60;99.90;;;;;;5098217;28;20115;-69
2023/05/31 09:44:55;;;;;;;8.18;6.25;;;21.50;99.90;;;;;;5080409;28;20314;-68
2023/05/31 09:47:27;;;;;;;16.88;6.93;;;21.70;99.90;;;;;;5097934;28;20035;-69
2023/05/31 09:49:54;;;;;;;11.77;6.45;;;21.70;99.90;;;;;;5098343;28;20047;-69
2023/05/31 09:52:33;;;;;;;11.38;6.78;;;21.70;99.90;;;;;;5097022;28;20042;-68
2023/05/31 09:55:06;;;;;;;13.38;7.32;;;21.70;99.90;;;;;;5096898;28;20043;-68
2023/05/31 09:57:38;;;;;;;12.80;8.70;;;22.00;99.90;;;;;;5097036;28;20074;-69
2023/05/31 10:00:11;;;;;;;12.57;7.35;;;22.10;86.70;;;;;;5097039;28;20043;-69
2023/05/31 10:02:38;;;;;;;12.07;6.10;;;22.10;1.00;;;;;;5097042;28;20561;-69
2023/05/31 10:05:05;;;;;;;9.40;6.50;;;22.30;1.00;;;;;;5096823;28;20123;-68
2023/05/31 10:07:32;;;;;;;10.23;6.18;;;22.50;1.00;;;;;;5096794;28;20044;-67
2023/05/31 10:09:57;;;;;;;11.18;6.75;;;22.60;99.90;;;;;;5080248;28;20039;-68
2023/05/31 10:12:26;;;;;;;10.13;5.97;;;22.60;12.20;;;;;;5097069;28;20032;-68
2023/05/31 10:15:00;;;;;;;12.75;6.03;;;22.70;99.90;;;;;;5096876;28;20035;-68
2023/05/31 10:17:29;;;;;;;9.52;5.07;;;22.80;99.90;;;;;;5097679;28;20035;-67
2023/05/31 10:20:02;;;;;;;11.00;6.88;;;23.00;1.00;;;;;;5079866;28;20306;-68
2023/05/31 10:22:31;;;;;;;10.40;6.50;;;23.00;1.00;;;;;;5096727;28;20307;-69
2023/05/31 10:25:23;;;;;;;11.18;6.25;;;23.20;1.00;;;;;;5080444;28;20289;-69
2023/05/31 10:27:54;;;;;;;11.13;6.00;;;23.40;1.00;;;;;;5096017;28;20036;-69
2023/05/31 10:30:25;;;;;;;12.13;6.18;;;23.80;99.90;;;;;;5096405;28;20411;-69
2023/05/31 10:33:00;;;;;;;10.32;5.35;;;23.70;1.00;;;;;;5080446;28;20058;-69
2023/05/31 10:35:27;;;;;;;11.77;6.80;;;23.80;1.00;;;;;;5079540;28;20036;-68
2023/05/31 10:37:53;;;;;;;10.48;6.00;;;23.90;99.90;;;;;;5096479;28;20032;-70
2023/05/31 10:40:25;;;;;;;8.95;5.43;;;24.10;1.00;;;;;;5079568;28;20115;-69
2023/05/31 10:43:15;;;;;;;9.73;5.50;;;24.30;99.90;;;;;;5097186;28;20032;-69
2023/05/31 10:45:51;;;;;;;10.82;5.18;;;24.30;1.00;;;;;;5065925;28;20143;-69
2023/05/31 10:48:43;;;;;;;10.90;5.72;;;24.40;1.00;;;;;;5096419;28;20043;-69
2023/05/31 10:51:10;;;;;;;9.90;4.45;;;24.70;1.00;;;;;;5078703;28;20032;-68
2023/05/31 10:53:37;;;;;;;18.38;4.90;;;24.50;99.90;;;;;;5097004;28;20037;-69
2023/05/31 10:56:09;;;;;;;6.72;3.83;;;24.80;99.90;;;;;;5096145;28;20032;-69
2023/05/31 10:58:37;;;;;;;7.43;4.45;;;25.10;1.00;;;;;;5096882;28;20070;-69
2023/05/31 11:01:14;;;;;;;9.02;4.25;;;25.30;99.90;;;;;;5096215;28;20035;-70
2023/05/31 11:03:48;;;;;;;9.85;4.78;;;26.00;1.00;;;;;;5097041;28;20035;-70
2023/05/31 11:06:17;;;;;;;9.35;4.07;;;27.00;99.90;;;;;;5096758;28;20047;-69
2023/05/31 11:09:10;;;;;;;11.07;3.72;;;28.60;1.00;;;;;;5079065;28;20210;-69
2023/05/31 11:11:39;;;;;;;;;;;29.80;1.00;;;;;;5097072;28;20418;-68
2023/05/31 11:14:26;;;;;;;5.53;3.45;;;30.30;1.00;;;;;;5096058;28;20195;-69
2023/05/31 11:17:03;;;;;;;9.13;4.03;;;31.20;1.00;;;;;;5096096;28;20043;-69
2023/05/31 11:19:30;;;;;;;6.07;3.03;;;31.60;1.00;;;;;;5096912;28;20413;-68
2023/05/31 11:22:05;;;;;;;8.85;3.25;;;32.00;99.90;;;;;;5096489;28;20039;-69
2023/05/31 11:24:39;;;;;;;7.38;3.33;;;32.40;99.90;;;;;;5096862;28;20056;-69
2023/05/31 11:27:10;;;;;;;4.43;2.85;;;32.80;99.90;;;;;;5096618;28;20032;-68
2023/05/31 11:29:47;;;;;;;7.45;2.63;;;32.70;99.90;;;;;;5097212;28;20031;-68
2023/05/31 11:32:20;;;;;;;8.85;3.03;;;32.60;99.90;;;;;;5095853;28;20040;-68
2023/05/31 11:34:56;;;;;;;5.10;2.30;;;33.20;99.90;;;;;;5096617;28;20038;-68
2023/05/31 11:37:23;;;;;;;8.02;2.65;;;34.50;99.90;;;;;;5078983;28;20039;-68
2023/05/31 11:39:49;;;;;;;5.95;2.60;;;32.40;99.90;;;;;;5096695;28;20101;-69
2023/05/31 11:42:16;;;;;;;9.00;2.47;;;31.30;99.90;;;;;;5096163;28;20035;-68
2023/05/31 11:44:43;;;;;;;6.18;2.33;;;31.40;99.90;;;;;;5099478;28;20024;-68
2023/05/31 11:47:20;;;;;;;10.10;2.90;;;32.30;99.90;;;;;;5100304;28;20063;-68
2023/05/31 11:49:46;;;;;;;6.85;2.70;;;32.60;99.90;;;;;;5100289;28;20032;-68
2023/05/31 11:52:17;;;;;;;7.72;3.00;;;32.80;99.90;;;;;;5099290;28;20296;-69
2023/05/31 11:54:45;;;;;;;7.90;2.97;;;33.50;99.90;;;;;;5082517;28;20089;-68
2023/05/31 11:57:11;;;;;;;6.88;2.90;;;33.60;99.90;;;;;;5099679;28;20032;-68
2023/05/31 11:59:39;;;;;;;5.45;2.60;;;33.50;99.90;;;;;;5100054;28;20291;-68
2023/05/31 12:02:06;;;;;;;12.93;2.95;;;34.70;99.90;;;;;;5099960;28;20020;-65
2023/05/31 12:04:39;;;;;;;5.25;2.45;;;34.10;99.90;;;;;;5099091;28;20097;-64
2023/05/31 12:07:15;;;;;;;10.25;2.80;;;34.10;99.90;;;;;;5100038;28;20059;-64
2023/05/31 12:09:41;;;;;;;6.22;2.53;;;33.80;96.40;;;;;;5099439;28;20303;-65
2023/05/31 12:12:07;;;;;;;7.13;2.80;;;33.80;91.30;;;;;;5098897;28;20069;-65
2023/05/31 12:14:33;;;;;;;7.90;2.78;;;33.40;86.50;;;;;;5099519;28;20299;-66
2023/05/31 12:17:04;;;;;;;11.95;2.70;;;33.50;83.10;;;;;;5082023;28;20024;-65
2023/05/31 12:19:31;;;;;;;6.65;2.47;;;34.20;82.40;;;;;;5099590;28;20028;-65
2023/05/31 12:21:57;;;;;;;8.00;2.60;;;34.20;71.00;;;;;;5098878;28;20103;-66
2023/05/31 12:24:23;;;;;;;7.15;2.60;;;34.90;60.50;;;;;;5098737;28;20391;-65
2023/05/31 12:26:49;;;;;;;9.18;2.65;;;35.40;51.20;;;;;;5098692;28;20032;-65
2023/05/31 12:29:16;;;;;;;11.43;2.63;;;35.00;37.30;;;;;;5099374;28;20032;-66
2023/05/31 12:31:42;;;;;;;7.05;2.38;;;34.60;42.10;;;;;;5099806;28;20360;-65
2023/05/31 12:34:12;;;;;;;7.65;2.60;;;35.10;43.30;;;;;;5098653;28;20111;-65
2023/05/31 12:36:41;;;;;;;7.32;2.42;;;35.70;42.30;;;;;;5099360;28;20054;-65
2023/05/31 12:39:11;;;;;;;13.38;2.67;;;36.30;24.50;;;;;;5099221;28;20407;-65
2023/05/31 12:41:38;;;;;;;7.20;2.08;;;37.20;22.20;;;;;;5081641;28;20060;-65
2023/05/31 12:44:06;;;;;;;6.25;2.22;;;36.70;6.20;;;;;;5082026;28;20040;-66
2023/05/31 12:46:40;;;;;;;6.53;2.42;;;37.20;8.00;;;;;;5081545;28;20085;-66
2023/05/31 12:49:21;;;;;;;5.53;2.28;;;37.70;1.00;;;;;;5099138;28;20077;-66
2023/05/31 12:51:56;;;;;;;9.32;2.60;;;38.10;1.00;;;;;;5099403;28;20036;-66
2023/05/31 12:54:25;;;;;;;7.10;2.58;;;37.80;1.00;;;;;;5097242;28;20020;-66